sensor_id;sensor_type;location;lat;lon;timestamp;P1;durP1;ratioP1;P2;durP2;ratioP2
19414;SDS011;9843;48.882;12.592;2022-10-30T00:00:39;21.33;;;16.00;;
19414;SDS011;9843;48.882;12.592;2022-10-30T00:03:09;16.07;;;13.10;;
19414;SDS011;9843;48.882;12.592;2022-10-30T00:05:39;15.77;;;12.73;;
19414;SDS011;9843;48.882;12.592;2022-10-30T00:08:06;24.07;;;14.83;;
19414;SDS011;9843;48.882;12.592;2022-10-30T00:10:33;20.67;;;12.57;;
19414;SDS011;9843;48.882;12.592;2022-10-30T00:13:00;19.20;;;13.70;;
19414;SDS011;9843;48.882;12.592;2022-10-30T00:15:26;16.47;;;12.37;;
19414;SDS011;9843;48.882;12.592;2022-10-30T00:17:53;34.30;;;13.60;;
19414;SDS011;9843;48.882;12.592;2022-10-30T00:20:21;18.03;;;11.07;;
19414;SDS011;9843;48.882;12.592;2022-10-30T00:22:48;25.50;;;12.43;;
19414;SDS011;9843;48.882;12.592;2022-10-30T00:25:15;17.90;;;12.63;;
19414;SDS011;9843;48.882;12.592;2022-10-30T00:27:41;20.17;;;11.03;;
19414;SDS011;9843;48.882;12.592;2022-10-30T00:30:09;17.63;;;10.63;;
19414;SDS011;9843;48.882;12.592;2022-10-30T00:32:36;12.23;;;9.80;;
19414;SDS011;9843;48.882;12.592;2022-10-30T00:35:03;18.80;;;12.03;;
19414;SDS011;9843;48.882;12.592;2022-10-30T00:37:32;23.63;;;12.83;;
19414;SDS011;9843;48.882;12.592;2022-10-30T00:39:59;23.90;;;14.27;;
19414;SDS011;9843;48.882;12.592;2022-10-30T00:42:27;13.63;;;10.33;;
19414;SDS011;9843;48.882;12.592;2022-10-30T00:44:55;25.47;;;13.07;;
19414;SDS011;9843;48.882;12.592;2022-10-30T00:47:22;15.50;;;9.87;;
19414;SDS011;9843;48.882;12.592;2022-10-30T00:49:54;15.13;;;11.00;;
19414;SDS011;9843;48.882;12.592;2022-10-30T00:52:24;12.20;;;9.93;;
19414;SDS011;9843;48.882;12.592;2022-10-30T00:54:56;17.23;;;12.13;;
19414;SDS011;9843;48.882;12.592;2022-10-30T00:57:27;14.63;;;9.93;;
19414;SDS011;9843;48.882;12.592;2022-10-30T00:59:54;13.67;;;8.93;;
19414;SDS011;9843;48.882;12.592;2022-10-30T01:02:21;11.97;;;9.83;;
19414;SDS011;9843;48.882;12.592;2022-10-30T01:04:48;15.13;;;9.73;;
19414;SDS011;9843;48.882;12.592;2022-10-30T01:07:18;20.37;;;12.20;;
19414;SDS011;9843;48.882;12.592;2022-10-30T01:09:45;28.93;;;11.07;;
19414;SDS011;9843;48.882;12.592;2022-10-30T01:12:14;12.60;;;9.70;;
19414;SDS011;9843;48.882;12.592;2022-10-30T01:14:41;11.60;;;9.77;;
19414;SDS011;9843;48.882;12.592;2022-10-30T01:17:17;27.20;;;11.03;;
19414;SDS011;9843;48.882;12.592;2022-10-30T01:20:12;9.47;;;8.17;;
19414;SDS011;9843;48.882;12.592;2022-10-30T01:22:52;23.70;;;10.87;;
19414;SDS011;9843;48.882;12.592;2022-10-30T01:25:31;13.30;;;9.63;;
19414;SDS011;9843;48.882;12.592;2022-10-30T01:28:09;13.13;;;8.80;;
19414;SDS011;9843;48.882;12.592;2022-10-30T01:30:48;15.00;;;10.30;;
19414;SDS011;9843;48.882;12.592;2022-10-30T01:33:30;11.80;;;8.80;;
19414;SDS011;9843;48.882;12.592;2022-10-30T01:36:07;16.53;;;10.03;;
19414;SDS011;9843;48.882;12.592;2022-10-30T01:38:43;19.40;;;9.43;;
19414;SDS011;9843;48.882;12.592;2022-10-30T01:41:13;13.73;;;10.30;;
19414;SDS011;9843;48.882;12.592;2022-10-30T01:43:41;15.77;;;8.53;;
19414;SDS011;9843;48.882;12.592;2022-10-30T01:46:15;12.27;;;7.87;;
19414;SDS011;9843;48.882;12.592;2022-10-30T01:49:00;9.93;;;8.53;;
19414;SDS011;9843;48.882;12.592;2022-10-30T01:51:40;13.13;;;9.33;;
19414;SDS011;9843;48.882;12.592;2022-10-30T01:54:18;11.23;;;8.27;;
19414;SDS011;9843;48.882;12.592;2022-10-30T01:56:55;13.93;;;11.03;;
19414;SDS011;9843;48.882;12.592;2022-10-30T01:59:30;12.00;;;9.43;;
19414;SDS011;9843;48.882;12.592;2022-10-30T02:02:01;11.97;;;9.13;;
19414;SDS011;9843;48.882;12.592;2022-10-30T02:04:28;9.63;;;7.30;;
19414;SDS011;9843;48.882;12.592;2022-10-30T02:06:56;9.30;;;7.47;;
19414;SDS011;9843;48.882;12.592;2022-10-30T02:09:23;17.97;;;9.57;;
19414;SDS011;9843;48.882;12.592;2022-10-30T02:11:51;16.73;;;9.77;;
19414;SDS011;9843;48.882;12.592;2022-10-30T02:14:19;16.93;;;8.87;;
19414;SDS011;9843;48.882;12.592;2022-10-30T02:16:51;11.13;;;9.43;;
19414;SDS011;9843;48.882;12.592;2022-10-30T02:19:20;13.17;;;9.83;;
19414;SDS011;9843;48.882;12.592;2022-10-30T02:21:48;14.17;;;9.80;;
19414;SDS011;9843;48.882;12.592;2022-10-30T02:24:15;18.60;;;10.20;;
19414;SDS011;9843;48.882;12.592;2022-10-30T02:26:42;19.00;;;11.57;;
19414;SDS011;9843;48.882;12.592;2022-10-30T02:29:09;13.43;;;9.80;;
19414;SDS011;9843;48.882;12.592;2022-10-30T02:31:36;17.27;;;10.17;;
19414;SDS011;9843;48.882;12.592;2022-10-30T02:34:03;12.67;;;9.70;;
19414;SDS011;9843;48.882;12.592;2022-10-30T02:36:30;19.73;;;10.67;;
19414;SDS011;9843;48.882;12.592;2022-10-30T02:38:58;13.83;;;11.30;;
19414;SDS011;9843;48.882;12.592;2022-10-30T02:41:25;14.97;;;10.30;;
19414;SDS011;9843;48.882;12.592;2022-10-30T02:43:52;14.97;;;11.53;;
19414;SDS011;9843;48.882;12.592;2022-10-30T02:46:19;13.37;;;10.73;;
19414;SDS011;9843;48.882;12.592;2022-10-30T02:48:46;13.67;;;9.37;;
19414;SDS011;9843;48.882;12.592;2022-10-30T02:51:13;14.07;;;9.30;;
19414;SDS011;9843;48.882;12.592;2022-10-30T02:53:40;13.83;;;9.40;;
19414;SDS011;9843;48.882;12.592;2022-10-30T02:56:09;13.20;;;10.90;;
19414;SDS011;9843;48.882;12.592;2022-10-30T02:58:37;20.33;;;10.77;;
19414;SDS011;9843;48.882;12.592;2022-10-30T03:01:05;13.60;;;9.07;;
19414;SDS011;9843;48.882;12.592;2022-10-30T03:03:33;16.17;;;9.80;;
19414;SDS011;9843;48.882;12.592;2022-10-30T03:06:00;18.10;;;11.13;;
19414;SDS011;9843;48.882;12.592;2022-10-30T03:08:28;18.07;;;13.77;;
19414;SDS011;9843;48.882;12.592;2022-10-30T03:10:58;17.03;;;11.33;;
19414;SDS011;9843;48.882;12.592;2022-10-30T03:13:28;20.87;;;11.47;;
19414;SDS011;9843;48.882;12.592;2022-10-30T03:16:05;16.80;;;13.17;;
19414;SDS011;9843;48.882;12.592;2022-10-30T03:18:33;18.87;;;10.57;;
19414;SDS011;9843;48.882;12.592;2022-10-30T03:21:01;17.20;;;11.10;;
19414;SDS011;9843;48.882;12.592;2022-10-30T03:23:29;16.33;;;11.63;;
19414;SDS011;9843;48.882;12.592;2022-10-30T03:25:56;18.00;;;12.03;;
19414;SDS011;9843;48.882;12.592;2022-10-30T03:28:25;21.20;;;11.30;;
19414;SDS011;9843;48.882;12.592;2022-10-30T03:30:58;19.63;;;9.97;;
19414;SDS011;9843;48.882;12.592;2022-10-30T03:33:25;24.23;;;11.63;;
19414;SDS011;9843;48.882;12.592;2022-10-30T03:35:52;13.17;;;11.70;;
19414;SDS011;9843;48.882;12.592;2022-10-30T03:38:19;12.47;;;10.33;;
19414;SDS011;9843;48.882;12.592;2022-10-30T03:40:46;12.90;;;10.27;;
19414;SDS011;9843;48.882;12.592;2022-10-30T03:43:13;17.70;;;11.23;;
19414;SDS011;9843;48.882;12.592;2022-10-30T03:45:44;18.83;;;10.27;;
19414;SDS011;9843;48.882;12.592;2022-10-30T03:48:12;16.37;;;9.57;;
19414;SDS011;9843;48.882;12.592;2022-10-30T03:50:40;17.13;;;11.90;;
19414;SDS011;9843;48.882;12.592;2022-10-30T03:53:06;17.27;;;9.40;;
19414;SDS011;9843;48.882;12.592;2022-10-30T03:55:33;13.40;;;10.37;;
19414;SDS011;9843;48.882;12.592;2022-10-30T03:58:00;21.83;;;8.93;;
19414;SDS011;9843;48.882;12.592;2022-10-30T04:00:27;18.10;;;8.47;;
19414;SDS011;9843;48.882;12.592;2022-10-30T04:02:54;10.50;;;8.70;;
19414;SDS011;9843;48.882;12.592;2022-10-30T04:05:23;13.47;;;9.23;;
19414;SDS011;9843;48.882;12.592;2022-10-30T04:07:53;12.30;;;10.00;;
19414;SDS011;9843;48.882;12.592;2022-10-30T04:10:21;11.83;;;8.67;;
19414;SDS011;9843;48.882;12.592;2022-10-30T04:12:48;12.07;;;8.70;;
19414;SDS011;9843;48.882;12.592;2022-10-30T04:15:15;11.47;;;9.73;;
19414;SDS011;9843;48.882;12.592;2022-10-30T04:17:47;13.63;;;8.27;;
19414;SDS011;9843;48.882;12.592;2022-10-30T04:20:15;25.00;;;11.33;;
19414;SDS011;9843;48.882;12.592;2022-10-30T04:22:43;15.63;;;9.93;;
19414;SDS011;9843;48.882;12.592;2022-10-30T04:25:10;19.23;;;10.00;;
19414;SDS011;9843;48.882;12.592;2022-10-30T04:27:41;18.47;;;9.90;;
19414;SDS011;9843;48.882;12.592;2022-10-30T04:30:09;17.93;;;10.50;;
19414;SDS011;9843;48.882;12.592;2022-10-30T04:32:44;26.67;;;11.07;;
19414;SDS011;9843;48.882;12.592;2022-10-30T04:35:11;16.67;;;10.03;;
19414;SDS011;9843;48.882;12.592;2022-10-30T04:37:37;20.33;;;13.33;;
19414;SDS011;9843;48.882;12.592;2022-10-30T04:40:06;14.13;;;10.03;;
19414;SDS011;9843;48.882;12.592;2022-10-30T04:42:34;14.93;;;9.20;;
19414;SDS011;9843;48.882;12.592;2022-10-30T04:45:01;15.97;;;10.20;;
19414;SDS011;9843;48.882;12.592;2022-10-30T04:47:27;15.53;;;11.43;;
19414;SDS011;9843;48.882;12.592;2022-10-30T04:49:55;15.17;;;10.90;;
19414;SDS011;9843;48.882;12.592;2022-10-30T04:52:22;22.60;;;9.57;;
19414;SDS011;9843;48.882;12.592;2022-10-30T04:54:49;14.73;;;10.67;;
19414;SDS011;9843;48.882;12.592;2022-10-30T04:57:17;14.13;;;11.33;;
19414;SDS011;9843;48.882;12.592;2022-10-30T04:59:44;14.17;;;9.30;;
19414;SDS011;9843;48.882;12.592;2022-10-30T05:02:10;15.87;;;11.57;;
19414;SDS011;9843;48.882;12.592;2022-10-30T05:04:37;10.27;;;9.03;;
19414;SDS011;9843;48.882;12.592;2022-10-30T05:07:04;14.53;;;10.37;;
19414;SDS011;9843;48.882;12.592;2022-10-30T05:09:31;12.23;;;8.23;;
19414;SDS011;9843;48.882;12.592;2022-10-30T05:11:58;15.97;;;10.13;;
19414;SDS011;9843;48.882;12.592;2022-10-30T05:14:28;16.27;;;9.93;;
19414;SDS011;9843;48.882;12.592;2022-10-30T05:16:55;17.70;;;10.63;;
19414;SDS011;9843;48.882;12.592;2022-10-30T05:19:22;10.63;;;9.07;;
19414;SDS011;9843;48.882;12.592;2022-10-30T05:21:49;12.90;;;9.27;;
19414;SDS011;9843;48.882;12.592;2022-10-30T05:24:16;17.50;;;10.97;;
19414;SDS011;9843;48.882;12.592;2022-10-30T05:26:43;14.27;;;10.53;;
19414;SDS011;9843;48.882;12.592;2022-10-30T05:29:10;23.27;;;11.23;;
19414;SDS011;9843;48.882;12.592;2022-10-30T05:31:38;12.00;;;9.83;;
19414;SDS011;9843;48.882;12.592;2022-10-30T05:34:05;13.23;;;9.70;;
19414;SDS011;9843;48.882;12.592;2022-10-30T05:36:32;22.80;;;11.60;;
19414;SDS011;9843;48.882;12.592;2022-10-30T05:38:59;19.97;;;11.80;;
19414;SDS011;9843;48.882;12.592;2022-10-30T05:41:27;20.40;;;11.93;;
19414;SDS011;9843;48.882;12.592;2022-10-30T05:43:53;20.33;;;12.03;;
19414;SDS011;9843;48.882;12.592;2022-10-30T05:46:20;21.33;;;13.00;;
19414;SDS011;9843;48.882;12.592;2022-10-30T05:48:49;28.43;;;13.87;;
19414;SDS011;9843;48.882;12.592;2022-10-30T05:51:16;19.50;;;12.23;;
19414;SDS011;9843;48.882;12.592;2022-10-30T05:53:43;20.47;;;12.03;;
19414;SDS011;9843;48.882;12.592;2022-10-30T05:56:10;32.07;;;15.07;;
19414;SDS011;9843;48.882;12.592;2022-10-30T05:58:37;17.67;;;12.00;;
19414;SDS011;9843;48.882;12.592;2022-10-30T06:01:05;14.67;;;11.40;;
19414;SDS011;9843;48.882;12.592;2022-10-30T06:03:32;15.07;;;10.83;;
19414;SDS011;9843;48.882;12.592;2022-10-30T06:06:00;17.90;;;11.57;;
19414;SDS011;9843;48.882;12.592;2022-10-30T06:08:27;22.67;;;12.53;;
19414;SDS011;9843;48.882;12.592;2022-10-30T06:10:55;13.63;;;10.73;;
19414;SDS011;9843;48.882;12.592;2022-10-30T06:13:22;19.03;;;11.30;;
19414;SDS011;9843;48.882;12.592;2022-10-30T06:15:49;18.10;;;11.37;;
19414;SDS011;9843;48.882;12.592;2022-10-30T06:18:16;24.13;;;11.67;;
19414;SDS011;9843;48.882;12.592;2022-10-30T06:20:43;15.93;;;11.83;;
19414;SDS011;9843;48.882;12.592;2022-10-30T06:23:12;20.43;;;12.17;;
19414;SDS011;9843;48.882;12.592;2022-10-30T06:25:39;15.90;;;11.00;;
19414;SDS011;9843;48.882;12.592;2022-10-30T06:28:06;17.33;;;10.77;;
19414;SDS011;9843;48.882;12.592;2022-10-30T06:30:34;14.37;;;10.30;;
19414;SDS011;9843;48.882;12.592;2022-10-30T06:33:02;19.17;;;10.10;;
19414;SDS011;9843;48.882;12.592;2022-10-30T06:35:30;13.53;;;9.70;;
19414;SDS011;9843;48.882;12.592;2022-10-30T06:37:57;16.77;;;9.27;;
19414;SDS011;9843;48.882;12.592;2022-10-30T06:40:25;14.13;;;9.03;;
19414;SDS011;9843;48.882;12.592;2022-10-30T06:42:54;17.73;;;11.83;;
19414;SDS011;9843;48.882;12.592;2022-10-30T06:45:21;16.17;;;10.47;;
19414;SDS011;9843;48.882;12.592;2022-10-30T06:47:49;13.60;;;9.57;;
19414;SDS011;9843;48.882;12.592;2022-10-30T06:50:17;14.97;;;9.50;;
19414;SDS011;9843;48.882;12.592;2022-10-30T06:52:45;14.07;;;7.80;;
19414;SDS011;9843;48.882;12.592;2022-10-30T06:55:13;11.73;;;8.17;;
19414;SDS011;9843;48.882;12.592;2022-10-30T06:57:41;13.13;;;7.40;;
19414;SDS011;9843;48.882;12.592;2022-10-30T07:00:09;14.97;;;7.77;;
19414;SDS011;9843;48.882;12.592;2022-10-30T07:02:36;25.63;;;10.57;;
19414;SDS011;9843;48.882;12.592;2022-10-30T07:05:03;14.80;;;7.23;;
19414;SDS011;9843;48.882;12.592;2022-10-30T07:07:30;21.27;;;8.10;;
19414;SDS011;9843;48.882;12.592;2022-10-30T07:09:57;14.10;;;6.90;;
19414;SDS011;9843;48.882;12.592;2022-10-30T07:12:23;20.07;;;7.53;;
19414;SDS011;9843;48.882;12.592;2022-10-30T07:14:51;11.07;;;7.17;;
19414;SDS011;9843;48.882;12.592;2022-10-30T07:17:18;12.90;;;7.47;;
19414;SDS011;9843;48.882;12.592;2022-10-30T07:19:45;10.90;;;7.07;;
19414;SDS011;9843;48.882;12.592;2022-10-30T07:22:11;14.30;;;6.80;;
19414;SDS011;9843;48.882;12.592;2022-10-30T07:24:38;11.27;;;6.20;;
19414;SDS011;9843;48.882;12.592;2022-10-30T07:27:05;13.77;;;5.93;;
19414;SDS011;9843;48.882;12.592;2022-10-30T07:29:32;7.83;;;5.17;;
19414;SDS011;9843;48.882;12.592;2022-10-30T07:32:00;11.97;;;6.37;;
19414;SDS011;9843;48.882;12.592;2022-10-30T07:34:26;12.67;;;6.73;;
19414;SDS011;9843;48.882;12.592;2022-10-30T07:37:09;22.90;;;10.33;;
19414;SDS011;9843;48.882;12.592;2022-10-30T07:39:37;16.37;;;8.37;;
19414;SDS011;9843;48.882;12.592;2022-10-30T07:42:36;15.57;;;9.23;;
19414;SDS011;9843;48.882;12.592;2022-10-30T07:45:06;11.30;;;6.33;;
19414;SDS011;9843;48.882;12.592;2022-10-30T07:47:45;7.43;;;5.30;;
19414;SDS011;9843;48.882;12.592;2022-10-30T07:50:15;11.67;;;6.87;;
19414;SDS011;9843;48.882;12.592;2022-10-30T07:52:53;18.20;;;7.50;;
19414;SDS011;9843;48.882;12.592;2022-10-30T07:55:21;11.60;;;6.73;;
19414;SDS011;9843;48.882;12.592;2022-10-30T07:57:48;11.37;;;6.07;;
19414;SDS011;9843;48.882;12.592;2022-10-30T08:00:15;12.73;;;8.03;;
19414;SDS011;9843;48.882;12.592;2022-10-30T08:02:47;19.57;;;6.90;;
19414;SDS011;9843;48.882;12.592;2022-10-30T08:05:15;23.00;;;7.63;;
19414;SDS011;9843;48.882;12.592;2022-10-30T08:07:44;9.37;;;7.97;;
19414;SDS011;9843;48.882;12.592;2022-10-30T08:10:11;14.10;;;5.93;;
19414;SDS011;9843;48.882;12.592;2022-10-30T08:12:38;16.03;;;9.53;;
19414;SDS011;9843;48.882;12.592;2022-10-30T08:15:08;11.80;;;7.70;;
19414;SDS011;9843;48.882;12.592;2022-10-30T08:17:39;17.07;;;8.30;;
19414;SDS011;9843;48.882;12.592;2022-10-30T08:20:09;23.90;;;7.43;;
19414;SDS011;9843;48.882;12.592;2022-10-30T08:22:42;9.67;;;7.03;;
19414;SDS011;9843;48.882;12.592;2022-10-30T08:25:10;19.57;;;8.27;;
19414;SDS011;9843;48.882;12.592;2022-10-30T08:27:37;15.37;;;8.17;;
19414;SDS011;9843;48.882;12.592;2022-10-30T08:30:04;13.57;;;8.37;;
19414;SDS011;9843;48.882;12.592;2022-10-30T08:32:31;15.37;;;8.40;;
19414;SDS011;9843;48.882;12.592;2022-10-30T08:34:58;16.13;;;9.13;;
19414;SDS011;9843;48.882;12.592;2022-10-30T08:37:26;13.50;;;7.23;;
19414;SDS011;9843;48.882;12.592;2022-10-30T08:39:53;10.40;;;6.10;;
19414;SDS011;9843;48.882;12.592;2022-10-30T08:42:20;18.73;;;7.30;;
19414;SDS011;9843;48.882;12.592;2022-10-30T08:44:46;12.87;;;7.27;;
19414;SDS011;9843;48.882;12.592;2022-10-30T08:47:13;16.80;;;8.37;;
19414;SDS011;9843;48.882;12.592;2022-10-30T08:49:40;27.37;;;7.83;;
19414;SDS011;9843;48.882;12.592;2022-10-30T08:52:07;13.20;;;7.70;;
19414;SDS011;9843;48.882;12.592;2022-10-30T08:54:35;15.30;;;9.03;;
19414;SDS011;9843;48.882;12.592;2022-10-30T08:57:02;10.57;;;7.43;;
19414;SDS011;9843;48.882;12.592;2022-10-30T08:59:29;12.40;;;6.03;;
19414;SDS011;9843;48.882;12.592;2022-10-30T09:01:55;15.97;;;7.03;;
19414;SDS011;9843;48.882;12.592;2022-10-30T09:04:22;38.20;;;24.70;;
19414;SDS011;9843;48.882;12.592;2022-10-30T09:06:49;16.77;;;9.57;;
19414;SDS011;9843;48.882;12.592;2022-10-30T09:09:16;12.90;;;6.30;;
19414;SDS011;9843;48.882;12.592;2022-10-30T09:11:44;15.90;;;7.20;;
19414;SDS011;9843;48.882;12.592;2022-10-30T09:14:12;15.00;;;6.90;;
19414;SDS011;9843;48.882;12.592;2022-10-30T09:16:39;17.07;;;9.20;;
19414;SDS011;9843;48.882;12.592;2022-10-30T09:19:06;10.77;;;6.67;;
19414;SDS011;9843;48.882;12.592;2022-10-30T09:21:33;11.47;;;6.47;;
19414;SDS011;9843;48.882;12.592;2022-10-30T09:23:59;12.37;;;7.93;;
19414;SDS011;9843;48.882;12.592;2022-10-30T09:26:27;12.83;;;6.87;;
19414;SDS011;9843;48.882;12.592;2022-10-30T09:28:56;21.57;;;8.23;;
19414;SDS011;9843;48.882;12.592;2022-10-30T09:31:22;10.33;;;6.73;;
19414;SDS011;9843;48.882;12.592;2022-10-30T09:33:49;13.57;;;7.20;;
19414;SDS011;9843;48.882;12.592;2022-10-30T09:36:16;14.70;;;6.70;;
19414;SDS011;9843;48.882;12.592;2022-10-30T09:38:43;12.30;;;6.27;;
19414;SDS011;9843;48.882;12.592;2022-10-30T09:41:18;15.33;;;7.40;;
19414;SDS011;9843;48.882;12.592;2022-10-30T09:44:01;12.17;;;7.40;;
19414;SDS011;9843;48.882;12.592;2022-10-30T09:46:40;13.60;;;6.63;;
19414;SDS011;9843;48.882;12.592;2022-10-30T09:49:19;13.90;;;8.90;;
19414;SDS011;9843;48.882;12.592;2022-10-30T09:54:58;12.30;;;7.67;;
19414;SDS011;9843;48.882;12.592;2022-10-30T09:57:42;12.23;;;6.37;;
19414;SDS011;9843;48.882;12.592;2022-10-30T10:00:17;16.53;;;7.47;;
19414;SDS011;9843;48.882;12.592;2022-10-30T10:02:52;12.03;;;6.70;;
19414;SDS011;9843;48.882;12.592;2022-10-30T10:05:25;13.20;;;6.57;;
19414;SDS011;9843;48.882;12.592;2022-10-30T10:07:55;35.33;;;7.33;;
19414;SDS011;9843;48.882;12.592;2022-10-30T10:10:33;11.30;;;6.13;;
19414;SDS011;9843;48.882;12.592;2022-10-30T10:13:04;16.97;;;7.57;;
19414;SDS011;9843;48.882;12.592;2022-10-30T10:15:38;14.93;;;7.57;;
19414;SDS011;9843;48.882;12.592;2022-10-30T10:18:11;12.97;;;7.23;;
19414;SDS011;9843;48.882;12.592;2022-10-30T10:20:44;9.33;;;7.57;;
19414;SDS011;9843;48.882;12.592;2022-10-30T10:23:15;13.02;;;5.63;;
19414;SDS011;9843;48.882;12.592;2022-10-30T10:25:52;12.02;;;6.20;;
19414;SDS011;9843;48.882;12.592;2022-10-30T10:28:23;11.43;;;7.15;;
19414;SDS011;9843;48.882;12.592;2022-10-30T10:31:09;15.65;;;6.65;;
19414;SDS011;9843;48.882;12.592;2022-10-30T10:33:48;10.50;;;7.25;;
19414;SDS011;9843;48.882;12.592;2022-10-30T10:36:26;22.27;;;6.32;;
19414;SDS011;9843;48.882;12.592;2022-10-30T10:39:02;9.00;;;6.47;;
19414;SDS011;9843;48.882;12.592;2022-10-30T10:41:45;13.20;;;4.63;;
19414;SDS011;9843;48.882;12.592;2022-10-30T10:44:22;16.42;;;5.40;;
19414;SDS011;9843;48.882;12.592;2022-10-30T10:47:00;18.50;;;5.85;;
19414;SDS011;9843;48.882;12.592;2022-10-30T10:49:37;12.15;;;5.32;;
19414;SDS011;9843;48.882;12.592;2022-10-30T10:52:14;15.90;;;6.18;;
19414;SDS011;9843;48.882;12.592;2022-10-30T10:54:44;11.00;;;4.88;;
19414;SDS011;9843;48.882;12.592;2022-10-30T10:57:15;13.95;;;5.35;;
19414;SDS011;9843;48.882;12.592;2022-10-30T10:59:51;11.18;;;6.00;;
19414;SDS011;9843;48.882;12.592;2022-10-30T11:02:26;13.77;;;5.25;;
19414;SDS011;9843;48.882;12.592;2022-10-30T11:04:58;11.00;;;4.85;;
19414;SDS011;9843;48.882;12.592;2022-10-30T11:07:31;12.27;;;5.68;;
19414;SDS011;9843;48.882;12.592;2022-10-30T11:10:00;10.38;;;4.93;;
19414;SDS011;9843;48.882;12.592;2022-10-30T11:12:28;14.20;;;5.22;;
19414;SDS011;9843;48.882;12.592;2022-10-30T11:14:57;22.00;;;6.20;;
19414;SDS011;9843;48.882;12.592;2022-10-30T11:17:31;13.55;;;5.15;;
19414;SDS011;9843;48.882;12.592;2022-10-30T11:20:13;11.48;;;5.22;;
19414;SDS011;9843;48.882;12.592;2022-10-30T11:22:45;20.17;;;7.30;;
19414;SDS011;9843;48.882;12.592;2022-10-30T11:25:17;16.90;;;5.70;;
19414;SDS011;9843;48.882;12.592;2022-10-30T11:27:45;19.48;;;5.55;;
19414;SDS011;9843;48.882;12.592;2022-10-30T11:30:17;11.73;;;4.68;;
19414;SDS011;9843;48.882;12.592;2022-10-30T11:32:46;11.68;;;5.97;;
19414;SDS011;9843;48.882;12.592;2022-10-30T11:35:14;13.98;;;5.43;;
19414;SDS011;9843;48.882;12.592;2022-10-30T11:37:43;10.38;;;4.35;;
19414;SDS011;9843;48.882;12.592;2022-10-30T11:40:15;12.70;;;5.13;;
19414;SDS011;9843;48.882;12.592;2022-10-30T11:42:45;13.98;;;6.18;;
19414;SDS011;9843;48.882;12.592;2022-10-30T11:45:14;11.55;;;4.45;;
19414;SDS011;9843;48.882;12.592;2022-10-30T11:47:44;12.65;;;4.32;;
19414;SDS011;9843;48.882;12.592;2022-10-30T11:50:15;14.05;;;5.20;;
19414;SDS011;9843;48.882;12.592;2022-10-30T11:52:44;10.50;;;4.75;;
19414;SDS011;9843;48.882;12.592;2022-10-30T11:55:13;15.45;;;5.55;;
19414;SDS011;9843;48.882;12.592;2022-10-30T11:57:43;10.18;;;3.88;;
19414;SDS011;9843;48.882;12.592;2022-10-30T12:00:14;14.32;;;5.35;;
19414;SDS011;9843;48.882;12.592;2022-10-30T12:02:44;28.70;;;6.20;;
19414;SDS011;9843;48.882;12.592;2022-10-30T12:05:35;13.50;;;4.57;;
19414;SDS011;9843;48.882;12.592;2022-10-30T12:08:16;15.55;;;5.22;;
19414;SDS011;9843;48.882;12.592;2022-10-30T12:10:55;7.55;;;4.25;;
19414;SDS011;9843;48.882;12.592;2022-10-30T12:13:31;13.75;;;5.38;;
19414;SDS011;9843;48.882;12.592;2022-10-30T12:16:16;8.82;;;4.82;;
19414;SDS011;9843;48.882;12.592;2022-10-30T12:19:04;19.95;;;4.88;;
19414;SDS011;9843;48.882;12.592;2022-10-30T12:21:40;14.80;;;6.05;;
19414;SDS011;9843;48.882;12.592;2022-10-30T12:24:35;11.65;;;5.80;;
19414;SDS011;9843;48.882;12.592;2022-10-30T12:27:05;10.98;;;5.45;;
19414;SDS011;9843;48.882;12.592;2022-10-30T12:29:39;14.07;;;5.70;;
19414;SDS011;9843;48.882;12.592;2022-10-30T12:32:13;12.68;;;5.22;;
19414;SDS011;9843;48.882;12.592;2022-10-30T12:34:45;17.52;;;5.80;;
19414;SDS011;9843;48.882;12.592;2022-10-30T12:37:19;7.63;;;5.22;;
19414;SDS011;9843;48.882;12.592;2022-10-30T12:39:52;17.45;;;7.25;;
19414;SDS011;9843;48.882;12.592;2022-10-30T12:42:23;10.53;;;5.47;;
19414;SDS011;9843;48.882;12.592;2022-10-30T12:44:52;10.75;;;4.47;;
19414;SDS011;9843;48.882;12.592;2022-10-30T12:47:33;12.75;;;4.90;;
19414;SDS011;9843;48.882;12.592;2022-10-30T12:50:09;27.08;;;7.53;;
19414;SDS011;9843;48.882;12.592;2022-10-30T12:52:43;12.45;;;5.55;;
19414;SDS011;9843;48.882;12.592;2022-10-30T12:55:15;13.73;;;5.90;;
19414;SDS011;9843;48.882;12.592;2022-10-30T12:57:47;13.27;;;4.85;;
19414;SDS011;9843;48.882;12.592;2022-10-30T13:00:19;9.52;;;4.53;;
19414;SDS011;9843;48.882;12.592;2022-10-30T13:02:49;11.70;;;5.20;;
19414;SDS011;9843;48.882;12.592;2022-10-30T13:05:29;23.67;;;5.00;;
19414;SDS011;9843;48.882;12.592;2022-10-30T13:10:45;17.25;;;5.22;;
19414;SDS011;9843;48.882;12.592;2022-10-30T13:13:15;11.85;;;5.07;;
19414;SDS011;9843;48.882;12.592;2022-10-30T13:15:46;9.25;;;4.97;;
19414;SDS011;9843;48.882;12.592;2022-10-30T13:18:15;11.25;;;6.35;;
19414;SDS011;9843;48.882;12.592;2022-10-30T13:23:45;17.73;;;5.43;;
19414;SDS011;9843;48.882;12.592;2022-10-30T13:26:19;23.42;;;7.07;;
19414;SDS011;9843;48.882;12.592;2022-10-30T13:28:52;16.65;;;5.57;;
19414;SDS011;9843;48.882;12.592;2022-10-30T13:31:26;12.38;;;5.97;;
19414;SDS011;9843;48.882;12.592;2022-10-30T13:33:59;12.52;;;5.38;;
19414;SDS011;9843;48.882;12.592;2022-10-30T13:36:34;14.93;;;6.47;;
19414;SDS011;9843;48.882;12.592;2022-10-30T13:39:09;10.45;;;5.68;;
19414;SDS011;9843;48.882;12.592;2022-10-30T13:41:47;14.07;;;5.63;;
19414;SDS011;9843;48.882;12.592;2022-10-30T13:44:28;20.35;;;6.40;;
19414;SDS011;9843;48.882;12.592;2022-10-30T13:47:07;12.27;;;5.32;;
19414;SDS011;9843;48.882;12.592;2022-10-30T13:49:48;12.98;;;6.47;;
19414;SDS011;9843;48.882;12.592;2022-10-30T13:52:36;19.57;;;6.87;;
19414;SDS011;9843;48.882;12.592;2022-10-30T13:55:12;11.67;;;5.23;;
19414;SDS011;9843;48.882;12.592;2022-10-30T13:57:45;13.23;;;5.93;;
19414;SDS011;9843;48.882;12.592;2022-10-30T14:00:15;9.83;;;5.97;;
19414;SDS011;9843;48.882;12.592;2022-10-30T14:05:40;12.37;;;6.03;;
19414;SDS011;9843;48.882;12.592;2022-10-30T14:08:16;8.60;;;5.40;;
19414;SDS011;9843;48.882;12.592;2022-10-30T14:10:47;13.67;;;6.40;;
19414;SDS011;9843;48.882;12.592;2022-10-30T14:13:21;10.27;;;4.87;;
19414;SDS011;9843;48.882;12.592;2022-10-30T14:15:55;10.60;;;6.63;;
19414;SDS011;9843;48.882;12.592;2022-10-30T14:18:26;10.43;;;5.97;;
19414;SDS011;9843;48.882;12.592;2022-10-30T14:20:55;13.27;;;5.40;;
19414;SDS011;9843;48.882;12.592;2022-10-30T14:23:24;16.47;;;5.37;;
19414;SDS011;9843;48.882;12.592;2022-10-30T14:26:18;10.93;;;5.50;;
19414;SDS011;9843;48.882;12.592;2022-10-30T14:28:46;16.50;;;7.20;;
19414;SDS011;9843;48.882;12.592;2022-10-30T14:31:15;9.27;;;4.70;;
19414;SDS011;9843;48.882;12.592;2022-10-30T14:33:45;11.57;;;5.77;;
19414;SDS011;9843;48.882;12.592;2022-10-30T14:36:18;15.13;;;5.60;;
19414;SDS011;9843;48.882;12.592;2022-10-30T14:38:52;16.93;;;5.20;;
19414;SDS011;9843;48.882;12.592;2022-10-30T14:41:25;11.37;;;5.63;;
19414;SDS011;9843;48.882;12.592;2022-10-30T14:44:09;8.43;;;4.50;;
19414;SDS011;9843;48.882;12.592;2022-10-30T14:47:19;15.97;;;6.87;;
19414;SDS011;9843;48.882;12.592;2022-10-30T14:50:05;13.10;;;5.97;;
19414;SDS011;9843;48.882;12.592;2022-10-30T14:52:42;9.17;;;4.50;;
19414;SDS011;9843;48.882;12.592;2022-10-30T14:55:25;20.77;;;5.27;;
19414;SDS011;9843;48.882;12.592;2022-10-30T14:58:12;12.17;;;6.30;;
19414;SDS011;9843;48.882;12.592;2022-10-30T15:00:42;20.50;;;7.30;;
19414;SDS011;9843;48.882;12.592;2022-10-30T15:03:13;16.10;;;5.67;;